Csl Melbourne — 8PWP — position and weather

sailwx.info

Track history (hours):
 
Tides and Currents Weather Stations Pressure Air Temp Water Temp Dewpoint Dewpoint Depression Visibility Wind Speed Wind Dir Waves Ship Positions

Csl Melbourne

Last reported at 2015-May-06 08:33 UTC. Time now 2015-May-06 09:26 UTC.
Position S 32°54' E 151°46'.

Length 187 m; draft 12.2 m.

Type: Cargo ship. MMSI: 314317000.

Date/timePositionNaut miles runAvg speedWind from/ knotsBaromVisibWave heightAir tempDewpointWater temp
2015-May-06 08:33S 32°54' E 151°46'0 0.0
2015-May-06 07:33S 32°54' E 151°46'0 0.0
2015-May-06 06:27S 32°54' E 151°46'0 0.0
2015-May-06 05:33S 32°54' E 151°46'0 0.0
2015-May-06 04:33S 32°54' E 151°46'0 0.0
2015-May-06 03:33S 32°54' E 151°46'0 0.0
2015-May-06 02:33S 32°54' E 151°46'0 0.0
2015-May-06 01:33S 32°54' E 151°46'0 0.0
2015-May-06 00:33S 32°54' E 151°46'0 0.0
2015-May-05 23:33S 32°54' E 151°46'0 0.0
2015-May-05 22:33S 32°54' E 151°46'0 0.1
2015-May-05 21:33S 32°54' E 151°46'6 5.7
2015-May-05 20:26S 32°58' E 151°52'5 5.2
2015-May-05 19:34S 32°60' E 151°57'5 5.0
2015-May-05 18:33S 32°57' E 152°02'7 7.4
2015-May-05 17:34S 32°53' E 152°09'9 8.9
2015-May-05 16:33S 32°47' E 152°17'9 9.2
2015-May-05 15:34S 32°42' E 152°26'1111.3
2015-May-05 14:33S 32°35' E 152°36'1212.3
2015-May-05 13:33S 32°27' E 152°48'1812.7
2015-May-05 12:08S 32°10' E 152°56'812.9
2015-May-05 11:33S 32°03' E 152°59'1513.1
2015-May-05 10:25S 31°49' E 153°04'24412.9
2015-May-04 15:32S 27°49' E 153°56'2411.2
2015-May-04 13:26S 27°25' E 153°54'1010.5
2015-May-04 12:30S 27°16' E 153°53'1110.6
2015-May-04 11:28S 27°05' E 153°52'1410.9
2015-May-04 10:12S 26°51' E 153°50'811.1
2015-May-04 09:30S 26°43' E 153°49'1410.9
2015-May-04 08:12S 26°29' E 153°48'1211.1
2015-May-04 07:07S 26°17' E 153°46'  
2015-Apr-29 13:08S 26°31' E 153°41'712.1
2015-Apr-29 12:33S 26°38' E 153°40'1711.9
2015-Apr-29 11:09S 26°54' E 153°39'812.8
2015-Apr-29 10:33S 27°02' E 153°39'1313.3
2015-Apr-29 09:33S 27°15' E 153°41'1313.4
2015-Apr-29 08:33S 27°29' E 153°40'1312.8
2015-Apr-29 07:34S 27°41' E 153°42'1211.6
2015-Apr-29 06:33S 27°53' E 153°42'1211.6
2015-Apr-29 05:33S 28°04' E 153°44'1211.5
2015-Apr-29 04:33S 28°16' E 153°44'25011.2
2015-Apr-28 06:10S 32°20' E 152°42'610.4
2015-Apr-28 05:34S 32°26' E 152°40'1111.3
2015-Apr-28 04:33S 32°36' E 152°32'1212.5
2015-Apr-28 03:33S 32°44' E 152°21'1212.3
2015-Apr-28 02:33S 32°51' E 152°09'1312.6
2015-Apr-28 01:34S 32°56' E 151°55'7 7.2
2015-Apr-28 00:31S 32°54' E 151°46'1 0.6
2015-Apr-27 23:15S 32°54' E 151°46'0 0.0
2015-Apr-27 22:15S 32°54' E 151°46'0 0.0
2015-Apr-27 21:30S 32°54' E 151°46'0 0.0
2015-Apr-27 20:33S 32°54' E 151°46'0 0.0
2015-Apr-27 19:33S 32°54' E 151°46'0 0.0
2015-Apr-27 18:33S 32°54' E 151°46'0 0.0
2015-Apr-27 17:33S 32°54' E 151°46'0 0.0
2015-Apr-27 16:24S 32°54' E 151°46'0 0.0
2015-Apr-27 15:33S 32°54' E 151°46'0 0.0
2015-Apr-27 14:33S 32°54' E 151°46'0 0.0
2015-Apr-27 13:27S 32°54' E 151°46'0 0.0
2015-Apr-27 12:30S 32°54' E 151°46'0 0.0
2015-Apr-27 11:33S 32°54' E 151°46'0 0.0
2015-Apr-27 10:30S 32°54' E 151°46'0 0.0
2015-Apr-27 09:33S 32°54' E 151°46'0 0.0
2015-Apr-27 08:30S 32°54' E 151°46'0 0.0
2015-Apr-27 07:33S 32°54' E 151°46'0 0.0
2015-Apr-27 06:33S 32°54' E 151°46'0 0.0
2015-Apr-27 05:33S 32°54' E 151°46'0 0.0
2015-Apr-27 04:33S 32°54' E 151°46'0 0.0
2015-Apr-27 03:30S 32°54' E 151°46'0 0.0
2015-Apr-27 02:33S 32°54' E 151°46'0 0.0
2015-Apr-27 01:33S 32°54' E 151°46'0 0.0
2015-Apr-27 00:33S 32°54' E 151°46'0 0.0
2015-Apr-26 23:33S 32°54' E 151°46'0 0.0
2015-Apr-26 22:30S 32°54' E 151°46'0 0.0
2015-Apr-26 21:33S 32°54' E 151°46'0 0.0
2015-Apr-26 20:30S 32°54' E 151°46'0 0.0
2015-Apr-26 19:30S 32°54' E 151°46'0 0.0
2015-Apr-26 18:33S 32°54' E 151°46'0 0.0
2015-Apr-26 17:33S 32°54' E 151°46'0 0.0
2015-Apr-26 16:30S 32°54' E 151°46'0 0.0
2015-Apr-26 15:33S 32°54' E 151°46'0 0.0
2015-Apr-26 14:33S 32°54' E 151°46'0 0.0
2015-Apr-26 13:33S 32°54' E 151°46'0 0.0
2015-Apr-26 12:30S 32°54' E 151°46'0 0.0
2015-Apr-26 11:33S 32°54' E 151°46'0 0.0
2015-Apr-26 10:15S 32°54' E 151°46'0 0.0
2015-Apr-26 08:33S 32°54' E 151°46'  
Track history (hours):
 
Tides and Currents Weather Stations Pressure Air Temp Water Temp Dewpoint Dewpoint Depression Visibility Wind Speed Wind Dir Waves Ship Positions

Csl Melbourne

Last reported at 2015-May-06 08:33 UTC. Time now 2015-May-06 09:26 UTC.
Position S 32°54' E 151°46'.

Length 187 m; draft 12.2 m.

Type: Cargo ship. MMSI: 314317000.

Date/timePositionNaut miles runAvg speedWind from/ knotsBaromVisibWave heightAir tempDewpointWater temp
2015-May-06 08:33S 32°54' E 151°46'0 0.0
2015-May-06 07:33S 32°54' E 151°46'0 0.0
2015-May-06 06:27S 32°54' E 151°46'0 0.0
2015-May-06 05:33S 32°54' E 151°46'0 0.0
2015-May-06 04:33S 32°54' E 151°46'0 0.0
2015-May-06 03:33S 32°54' E 151°46'0 0.0
2015-May-06 02:33S 32°54' E 151°46'0 0.0
2015-May-06 01:33S 32°54' E 151°46'0 0.0
2015-May-06 00:33S 32°54' E 151°46'0 0.0
2015-May-05 23:33S 32°54' E 151°46'0 0.0
2015-May-05 22:33S 32°54' E 151°46'0 0.1
2015-May-05 21:33S 32°54' E 151°46'6 5.7
2015-May-05 20:26S 32°58' E 151°52'5 5.2
2015-May-05 19:34S 32°60' E 151°57'5 5.0
2015-May-05 18:33S 32°57' E 152°02'7 7.4
2015-May-05 17:34S 32°53' E 152°09'9 8.9
2015-May-05 16:33S 32°47' E 152°17'9 9.2
2015-May-05 15:34S 32°42' E 152°26'1111.3
2015-May-05 14:33S 32°35' E 152°36'1212.3
2015-May-05 13:33S 32°27' E 152°48'1812.7
2015-May-05 12:08S 32°10' E 152°56'812.9
2015-May-05 11:33S 32°03' E 152°59'1513.1
2015-May-05 10:25S 31°49' E 153°04'24412.9
2015-May-04 15:32S 27°49' E 153°56'2411.2
2015-May-04 13:26S 27°25' E 153°54'1010.5
2015-May-04 12:30S 27°16' E 153°53'1110.6
2015-May-04 11:28S 27°05' E 153°52'1410.9
2015-May-04 10:12S 26°51' E 153°50'811.1
2015-May-04 09:30S 26°43' E 153°49'1410.9
2015-May-04 08:12S 26°29' E 153°48'1211.1
2015-May-04 07:07S 26°17' E 153°46'  
2015-Apr-29 13:08S 26°31' E 153°41'712.1
2015-Apr-29 12:33S 26°38' E 153°40'1711.9
2015-Apr-29 11:09S 26°54' E 153°39'812.8
2015-Apr-29 10:33S 27°02' E 153°39'1313.3
2015-Apr-29 09:33S 27°15' E 153°41'1313.4
2015-Apr-29 08:33S 27°29' E 153°40'1312.8
2015-Apr-29 07:34S 27°41' E 153°42'1211.6
2015-Apr-29 06:33S 27°53' E 153°42'1211.6
2015-Apr-29 05:33S 28°04' E 153°44'1211.5
2015-Apr-29 04:33S 28°16' E 153°44'25011.2
2015-Apr-28 06:10S 32°20' E 152°42'610.4
2015-Apr-28 05:34S 32°26' E 152°40'1111.3
2015-Apr-28 04:33S 32°36' E 152°32'1212.5
2015-Apr-28 03:33S 32°44' E 152°21'1212.3
2015-Apr-28 02:33S 32°51' E 152°09'1312.6
2015-Apr-28 01:34S 32°56' E 151°55'7 7.2
2015-Apr-28 00:31S 32°54' E 151°46'1 0.6
2015-Apr-27 23:15S 32°54' E 151°46'0 0.0
2015-Apr-27 22:15S 32°54' E 151°46'0 0.0
2015-Apr-27 21:30S 32°54' E 151°46'0 0.0
2015-Apr-27 20:33S 32°54' E 151°46'0 0.0
2015-Apr-27 19:33S 32°54' E 151°46'0 0.0
2015-Apr-27 18:33S 32°54' E 151°46'0 0.0
2015-Apr-27 17:33S 32°54' E 151°46'0 0.0
2015-Apr-27 16:24S 32°54' E 151°46'0 0.0
2015-Apr-27 15:33S 32°54' E 151°46'0 0.0
2015-Apr-27 14:33S 32°54' E 151°46'0 0.0
2015-Apr-27 13:27S 32°54' E 151°46'0 0.0
2015-Apr-27 12:30S 32°54' E 151°46'0 0.0
2015-Apr-27 11:33S 32°54' E 151°46'0 0.0
2015-Apr-27 10:30S 32°54' E 151°46'0 0.0
2015-Apr-27 09:33S 32°54' E 151°46'0 0.0
2015-Apr-27 08:30S 32°54' E 151°46'0 0.0
2015-Apr-27 07:33S 32°54' E 151°46'0 0.0
2015-Apr-27 06:33S 32°54' E 151°46'0 0.0
2015-Apr-27 05:33S 32°54' E 151°46'0 0.0
2015-Apr-27 04:33S 32°54' E 151°46'0 0.0
2015-Apr-27 03:30S 32°54' E 151°46'0 0.0
2015-Apr-27 02:33S 32°54' E 151°46'0 0.0
2015-Apr-27 01:33S 32°54' E 151°46'0 0.0
2015-Apr-27 00:33S 32°54' E 151°46'0 0.0
2015-Apr-26 23:33S 32°54' E 151°46'0 0.0
2015-Apr-26 22:30S 32°54' E 151°46'0 0.0
2015-Apr-26 21:33S 32°54' E 151°46'0 0.0
2015-Apr-26 20:30S 32°54' E 151°46'0 0.0
2015-Apr-26 19:30S 32°54' E 151°46'0 0.0
2015-Apr-26 18:33S 32°54' E 151°46'0 0.0
2015-Apr-26 17:33S 32°54' E 151°46'0 0.0
2015-Apr-26 16:30S 32°54' E 151°46'0 0.0
2015-Apr-26 15:33S 32°54' E 151°46'0 0.0
2015-Apr-26 14:33S 32°54' E 151°46'0 0.0
2015-Apr-26 13:33S 32°54' E 151°46'0 0.0
2015-Apr-26 12:30S 32°54' E 151°46'0 0.0
2015-Apr-26 11:33S 32°54' E 151°46'0 0.0
2015-Apr-26 10:15S 32°54' E 151°46'0 0.0
2015-Apr-26 08:33S 32°54' E 151°46'  

Dump ship's entire track history